Time;durP1;ratioP1;P1;durP2;ratioP2;P2;SDS_P1;SDS_P2;PMS_P1;PMS_P2;Temp;Humidity;BMP_temperature;BMP_pressure;BME280_temperature;BME280_humidity;BME280_pressure;Samples;Min_cycle;Max_cycle;Signal;HPM_P1;HPM_P2
2023/06/24 00:00:07;;;;;;;23.13;17.58;;;;;;;-141.84;97.38;20220.34;4946675;28;20251;-66
2023/06/24 00:02:37;;;;;;;23.83;18.08;;;;;;;-141.84;97.41;20242.69;4938755;28;20323;-67
2023/06/24 00:05:08;;;;;;;24.10;17.88;;;;;;;-141.84;97.61;20230.50;4946175;28;20244;-67
2023/06/24 00:07:43;;;;;;;26.08;17.65;;;;;;;-141.84;98.04;20216.25;4947424;28;20704;-67
2023/06/24 00:10:14;;;;;;;23.27;16.23;;;;;;;-141.84;98.36;20206.09;4947854;28;20236;-66
2023/06/24 00:13:01;;;;;;;24.05;17.90;;;;;;;-141.84;98.55;20183.75;4948167;28;20291;-67
2023/06/24 00:15:30;;;;;;;21.85;17.60;;;;;;;-141.84;98.66;20177.66;4947295;28;20709;-66
2023/06/24 00:18:05;;;;;;;25.48;18.13;;;;;;;-141.84;98.84;20137.00;4947222;28;20284;-67
2023/06/24 00:20:34;;;;;;;26.17;17.10;;;;;;;-141.84;98.76;20137.00;4939939;28;20236;-66
2023/06/24 00:23:03;;;;;;;25.10;17.67;;;;;;;-141.84;99.03;20151.22;4947804;28;20232;-67
2023/06/24 00:25:33;;;;;;;23.48;18.00;;;;;;;-141.84;99.25;20161.38;4946854;28;20331;-68
2023/06/24 00:28:02;;;;;;;23.38;18.35;;;;;;;-141.84;99.34;20165.44;4947282;28;20328;-67
2023/06/24 00:30:30;;;;;;;20.52;17.10;;;;;;;-141.84;99.53;20147.16;4943513;28;20733;-66
2023/06/24 00:32:59;;;;;;;29.30;18.98;;;;;;;-141.84;99.48;20126.84;4948138;28;20213;-66
2023/06/24 00:35:28;;;;;;;26.00;19.77;;;;;;;-141.84;99.82;20126.84;4945339;28;20284;-67
2023/06/24 00:37:58;;;;;;;25.83;20.20;;;;;;;-141.84;99.98;20147.16;4947386;28;20315;-66
2023/06/24 00:40:27;;;;;;;28.10;19.98;;;;;;;-141.84;99.74;20114.63;4946387;28;20231;-66
2023/06/24 00:42:57;;;;;;;24.52;18.75;;;;;;;-141.84;99.47;20096.34;4936620;28;20244;-67
2023/06/24 00:45:26;;;;;;;22.90;18.85;;;;;;;-141.84;99.52;20110.56;4932734;28;20294;-66
2023/06/24 00:47:56;;;;;;;27.42;20.13;;;;;;;-141.84;99.77;20149.19;4908934;29;20254;-67
2023/06/24 00:50:24;;;;;;;28.77;20.25;;;;;;;-141.84;99.57;20159.34;4941370;28;20259;-67
2023/06/24 00:52:53;;;;;;;29.40;20.45;;;;;;;-141.84;98.29;20183.75;4941932;28;20333;-67
2023/06/24 00:55:22;;;;;;;25.35;18.85;;;;;;;-141.84;97.75;20134.97;4945294;28;20287;-66
2023/06/24 00:57:52;;;;;;;24.67;19.80;;;;;;;-141.84;97.54;20204.06;4945292;28;20263;-66
2023/06/24 01:00:23;;;;;;;27.70;19.17;;;;;;;-141.84;97.64;20177.66;4926749;28;20695;-67
2023/06/24 01:02:52;;;;;;;29.90;20.60;;;;;;;-141.84;98.10;20171.56;4920842;29;20414;-66
2023/06/24 01:05:23;;;;;;;25.48;18.17;;;;;;;-141.84;98.20;20102.44;4943699;28;20347;-66
2023/06/24 01:07:55;;;;;;;31.83;20.65;;;;;;;-141.84;98.28;20126.84;4946491;28;20275;-67
2023/06/24 01:10:25;;;;;;;36.55;20.40;;;;;;;-141.84;98.31;20122.78;4946879;28;20248;-67
2023/06/24 01:12:54;;;;;;;24.20;18.73;;;;;;;-141.84;98.23;20116.66;4941835;28;20264;-66
2023/06/24 01:15:28;;;;;;;28.23;19.92;;;;;;;-141.84;98.25;20141.06;4946051;28;20236;-67
2023/06/24 01:18:03;;;;;;;29.65;19.92;;;;;;;-141.84;97.86;20147.16;4947002;28;20256;-66
2023/06/24 01:20:46;;;;;;;26.30;18.48;;;;;;;-141.84;97.04;20159.34;4938917;28;20272;-67
2023/06/24 01:23:36;;;;;;;23.42;17.60;;;;;;;-141.84;97.44;20120.75;4946748;28;20264;-66
2023/06/24 01:26:34;;;;;;;28.00;18.48;;;;;;;-141.84;97.65;20126.84;4946151;28;20653;-66
2023/06/24 01:29:31;;;;;;;24.52;18.45;;;;;;;-141.84;97.15;20128.88;4926373;28;20247;-66
2023/06/24 01:32:06;;;;;;;25.88;18.27;;;;;;;-141.84;97.45;20122.78;4931355;28;20312;-66
2023/06/24 01:34:38;;;;;;;26.00;19.17;;;;;;;-141.84;97.96;20090.25;4931099;28;20306;-66
2023/06/24 01:37:14;;;;;;;24.65;18.67;;;;;;;-141.84;97.78;20114.63;4946641;28;20331;-67
2023/06/24 01:39:49;;;;;;;25.25;18.10;;;;;;;-141.84;97.89;20114.63;4945929;28;20809;-66
2023/06/24 01:42:20;;;;;;;22.85;18.52;;;;;;;-141.84;98.16;20069.94;4946534;28;20297;-66
2023/06/24 01:44:51;;;;;;;24.98;20.27;;;;;;;-141.84;98.53;20086.19;4939278;28;20323;-66
2023/06/24 01:47:26;;;;;;;29.85;19.65;;;;;;;-141.84;98.46;20092.28;4946007;28;20244;-66
2023/06/24 01:49:58;;;;;;;25.27;18.40;;;;;;;-141.84;98.32;20059.75;4946488;28;20232;-66
2023/06/24 01:52:30;;;;;;;24.10;18.27;;;;;;;-141.84;98.62;20098.38;4945747;28;20312;-67
2023/06/24 01:55:01;;;;;;;24.90;18.77;;;;;;;-141.84;98.77;20051.63;4943076;28;20233;-66
2023/06/24 01:57:32;;;;;;;23.20;18.52;;;;;;;-141.84;99.27;20049.59;4946427;28;20212;-67
2023/06/24 02:00:01;;;;;;;25.27;17.70;;;;;;;-141.84;99.37;20043.50;4946222;28;20300;-66
2023/06/24 02:02:32;;;;;;;28.90;19.05;;;;;;;-141.84;99.70;20031.31;4938609;28;20284;-66
2023/06/24 02:05:03;;;;;;;21.80;18.25;;;;;;;-141.84;99.88;20027.25;4937993;28;20245;-66
2023/06/24 02:07:34;;;;;;;28.63;18.63;;;;;;;-141.84;100.00;19998.78;4926350;29;20316;-66
2023/06/24 02:10:04;;;;;;;25.08;19.02;;;;;;;-141.84;100.00;20031.31;4927214;28;20239;-68
2023/06/24 02:12:33;;;;;;;22.38;17.73;;;;;;;-141.84;100.00;19952.03;4919412;28;20217;-66
2023/06/24 02:15:04;;;;;;;26.00;19.15;;;;;;;-141.84;100.00;19996.75;4927392;29;20265;-67
2023/06/24 02:17:36;;;;;;;27.55;18.63;;;;;;;-141.84;100.00;19996.75;4928751;29;20280;-65
2023/06/24 02:20:08;;;;;;;25.40;18.15;;;;;;;-141.84;100.00;20000.81;4945065;28;20767;-66
2023/06/24 02:22:38;;;;;;;21.20;17.35;;;;;;;-141.84;100.00;19982.53;4937991;28;20279;-66
2023/06/24 02:25:09;;;;;;;19.63;16.85;;;;;;;-141.84;100.00;20006.91;4944201;28;20232;-66
2023/06/24 02:27:38;;;;;;;22.45;17.20;;;;;;;-141.84;100.00;20008.94;4936204;28;20636;-67
2023/06/24 02:30:08;;;;;;;20.40;17.35;;;;;;;-141.84;100.00;20015.03;4926475;29;20669;-67
2023/06/24 02:32:38;;;;;;;22.58;17.92;;;;;;;-141.84;100.00;20008.94;4915751;29;20320;-66
2023/06/24 02:35:08;;;;;;;22.67;17.83;;;;;;;-141.84;100.00;20015.03;4931374;28;20237;-66
2023/06/24 02:37:37;;;;;;;21.77;17.23;;;;;;;-141.84;100.00;19980.50;4945498;28;20240;-67
2023/06/24 02:40:08;;;;;;;23.92;18.40;;;;;;;-141.84;100.00;19986.59;4945956;28;20248;-66
2023/06/24 02:42:37;;;;;;;25.77;17.85;;;;;;;-141.84;99.82;20013.00;4938706;28;20259;-66
2023/06/24 02:45:07;;;;;;;22.27;16.55;;;;;;;-141.84;99.86;20000.81;4945389;28;20319;-65
2023/06/24 02:47:38;;;;;;;19.63;17.05;;;;;;;-141.84;99.93;20006.91;4945535;28;20233;-66
2023/06/24 02:50:10;;;;;;;22.45;17.17;;;;;;;-141.84;99.95;20004.88;4945565;28;20240;-66
2023/06/24 02:52:39;;;;;;;23.15;16.58;;;;;;;-141.84;100.00;19992.69;4938396;28;20229;-68
2023/06/24 02:55:09;;;;;;;19.75;17.15;;;;;;;-141.84;100.00;19994.72;4945224;28;20722;-66
2023/06/24 02:57:38;;;;;;;21.80;17.52;;;;;;;-141.84;100.00;19966.28;4945178;28;20261;-66
2023/06/24 03:00:12;;;;;;;21.70;17.63;;;;;;;-141.84;99.84;19966.28;4945817;28;20284;-67
2023/06/24 03:02:42;;;;;;;22.40;17.10;;;;;;;-141.84;99.72;19980.50;4938026;28;20649;-66
2023/06/24 03:05:12;;;;;;;24.25;17.70;;;;;;;-141.84;99.68;20031.31;4945127;28;20376;-67
2023/06/24 03:07:40;;;;;;;21.55;15.80;;;;;;;-141.84;99.61;20017.09;4945654;28;20233;-67
2023/06/24 03:10:10;;;;;;;20.75;16.65;;;;;;;-141.84;99.65;19966.28;4945628;28;20225;-67
2023/06/24 03:12:39;;;;;;;21.67;16.67;;;;;;;-141.84;99.48;19996.75;4939192;28;20235;-67
2023/06/24 03:15:09;;;;;;;19.60;17.08;;;;;;;-141.84;99.57;19972.38;4945825;28;20819;-66
2023/06/24 03:17:38;;;;;;;22.40;17.23;;;;;;;-141.84;99.51;19968.31;4944529;28;21063;-67
2023/06/24 03:20:09;;;;;;;20.20;16.38;;;;;;;-141.84;99.63;19964.25;4948481;28;20727;-66
2023/06/24 03:22:37;;;;;;;19.48;16.52;;;;;;;-141.84;99.28;19970.34;4941497;28;20328;-65
2023/06/24 03:25:06;;;;;;;19.15;15.45;;;;;;;-141.84;98.73;19994.72;4929359;29;20237;-66
2023/06/24 03:27:36;;;;;;;18.88;15.30;;;;;;;-141.84;98.64;19976.44;4929837;29;20284;-66
2023/06/24 03:30:06;;;;;;;20.42;15.30;;;;;;;-141.84;98.23;19970.34;4929482;29;20284;-66
2023/06/24 03:32:36;;;;;;;17.90;14.65;;;;;;;-141.84;97.94;19982.53;4940504;28;20328;-67
2023/06/24 03:35:06;;;;;;;19.02;15.73;;;;;;;-141.84;97.75;20029.28;4948285;28;20267;-65
2023/06/24 03:37:36;;;;;;;18.38;14.15;;;;;;;-141.84;97.24;20035.38;4948232;28;20769;-66
2023/06/24 03:40:06;;;;;;;18.65;14.98;;;;;;;-141.84;97.01;19992.69;4948223;28;20239;-66
2023/06/24 03:42:35;;;;;;;19.55;14.25;;;;;;;-141.84;96.46;20045.53;4941305;28;20304;-66
2023/06/24 03:45:04;;;;;;;18.00;13.98;;;;;;;-141.84;96.23;20037.41;4948067;28;20268;-67
2023/06/24 03:47:32;;;;;;;16.20;13.63;;;;;;;-141.84;95.96;20025.22;4947902;28;20303;-67
2023/06/24 03:50:01;;;;;;;14.88;13.25;;;;;;;-141.84;95.39;20045.53;4948077;28;20229;-66
2023/06/24 03:52:29;;;;;;;22.75;14.20;;;;;;;-141.84;95.35;20029.28;4945274;28;20320;-66
2023/06/24 03:55:01;;;;;;;15.88;13.30;;;;;;;-141.84;94.88;20023.19;4948285;28;20272;-65
2023/06/24 03:57:29;;;;;;;14.73;13.20;;;;;;;-141.84;94.35;20051.63;4948045;28;20256;-66
2023/06/24 03:59:58;;;;;;;16.35;12.65;;;;;;;-141.84;94.67;20023.19;4948575;28;20215;-66
2023/06/24 04:02:29;;;;;;;13.90;12.57;;;;;;;-141.84;94.24;20025.22;4947187;28;20228;-65
2023/06/24 04:04:58;;;;;;;17.95;13.10;;;;;;;-141.84;93.85;20053.66;4947865;28;20224;-66
2023/06/24 04:07:28;;;;;;;18.38;12.02;;;;;;;-141.84;93.74;20045.53;4947851;28;20240;-65
2023/06/24 04:09:58;;;;;;;19.95;12.57;;;;;;;-141.84;93.45;20063.81;4948191;28;20284;-66
2023/06/24 04:12:27;;;;;;;17.85;12.88;;;;;;;-141.84;93.10;20071.97;4946920;28;20209;-68
2023/06/24 04:14:55;;;;;;;13.77;12.30;;;;;;;-141.84;92.01;20074.00;4945398;28;20279;-66
2023/06/24 04:17:24;;;;;;;17.35;11.95;;;;;;;-141.84;92.92;20045.53;4947032;28;20243;-66
2023/06/24 04:19:53;;;;;;;13.38;12.07;;;;;;;-141.84;92.85;20067.88;4939592;28;20237;-66
2023/06/24 04:22:21;;;;;;;16.38;12.50;;;;;;;-141.84;91.80;20096.34;4928814;29;20275;-66
2023/06/24 04:24:50;;;;;;;14.85;12.52;;;;;;;-141.84;91.59;20086.19;4921495;29;20237;-65
2023/06/24 04:27:20;;;;;;;15.07;12.30;;;;;;;-141.84;91.95;20084.16;4929048;28;20241;-66
2023/06/24 04:29:48;;;;;;;15.02;11.95;;;;;;;-141.84;92.02;20086.19;4947600;28;20217;-65
2023/06/24 04:32:17;;;;;;;15.90;12.25;;;;;;;-141.84;90.73;20098.38;4947378;28;20768;-67
2023/06/24 04:34:45;;;;;;;12.48;10.93;;;;;;;-141.84;89.78;20126.84;4940897;28;20271;-66
2023/06/24 04:37:13;;;;;;;14.68;11.45;;;;;;;-141.84;88.54;20149.19;4947740;28;20237;-66
2023/06/24 04:39:42;;;;;;;17.50;10.65;;;;;;;-141.84;88.01;20161.38;4947250;28;20311;-66
2023/06/24 04:42:11;;;;;;;14.07;10.32;;;;;;;-141.84;88.55;20179.69;4948226;28;20291;-67
2023/06/24 04:44:41;;;;;;;15.65;11.52;;;;;;;-141.84;87.07;20132.94;4940900;28;20304;-66
2023/06/24 04:47:09;;;;;;;13.73;11.00;;;;;;;-141.84;85.87;20252.84;4946997;28;20238;-66
2023/06/24 04:49:38;;;;;;;11.40;10.13;;;;;;;-141.84;85.01;20244.72;4946266;28;20228;-66
2023/06/24 04:52:08;;;;;;;12.50;10.43;;;;;;;-141.84;85.68;20429.69;4947299;28;20319;-66
2023/06/24 04:54:36;;;;;;;13.55;9.73;;;16.80;99.90;;;-141.84;77.76;20783.41;4940120;28;20688;-66
2023/06/24 04:57:07;;;;;;;11.43;8.05;;;;;;;-141.84;62.41;21458.38;4928635;28;20312;-66
2023/06/24 04:59:43;;;;;;;9.98;7.30;;;;;;;-141.84;58.29;21917.91;4927795;29;20355;-66
2023/06/24 05:02:30;;;;;;;8.57;6.50;;;;;;;-141.84;51.54;22450.69;4927308;29;20668;-68
2023/06/24 05:05:08;;;;;;;8.38;6.38;;;;;;;-141.84;50.73;22670.34;4919531;28;20766;-67
2023/06/24 05:07:36;;;;;;;9.50;7.18;;;;;;;-141.84;48.46;22944.94;4908887;29;20241;-67
2023/06/24 05:10:06;;;;;;;9.65;7.47;;;;;;;-141.84;46.73;23132.06;4908555;29;20650;-68
2023/06/24 05:12:34;;;;;;;10.00;7.15;;;;;;;-141.84;45.10;23207.31;4901335;29;20226;-66
2023/06/24 05:15:05;;;;;;;8.00;7.10;;;;;;;-141.84;44.54;23121.88;4907438;29;20234;-66
2023/06/24 05:17:33;;;;;;;6.53;5.85;;;;;;;-141.84;45.47;23211.38;4908817;29;20229;-67
2023/06/24 05:20:02;;;;;;;9.32;6.80;;;;;;;-141.84;44.20;23382.25;4924721;29;20237;-67
2023/06/24 05:22:31;;;;;;;7.88;7.07;;;;;;;-141.84;43.78;23392.44;4919000;29;20319;-66
2023/06/24 05:24:59;;;;;;;7.93;6.25;;;;;;;-141.84;43.05;23477.88;4925974;28;20316;-67
2023/06/24 05:27:28;;;;;;;11.05;7.20;;;;;;;-141.84;43.74;23339.53;4925417;28;20318;-67
2023/06/24 05:29:56;;;;;;;12.05;7.43;;;;;;;-141.84;44.00;23390.41;4915201;28;20699;-67
2023/06/24 05:32:26;;;;;;;8.07;7.30;;;;;;;-141.84;44.43;23101.53;4916521;28;20312;-67
2023/06/24 05:34:55;;;;;;;7.72;7.00;;;;;;;-141.84;47.54;22570.69;4915285;29;20229;-67
2023/06/24 05:37:23;;;;;;;11.50;7.13;;;;;;;-141.84;51.41;22180.22;4926210;29;20243;-67
2023/06/24 05:39:52;;;;;;;10.15;7.50;;;;;;;-141.84;52.84;22037.88;4925518;29;20316;-67
2023/06/24 05:42:22;;;;;;;9.95;7.75;;;;;;;-141.84;54.27;21999.25;4925158;29;20218;-66
2023/06/24 05:44:51;;;;;;;8.88;7.32;;;;;;;-141.84;54.69;21921.97;4917835;28;20641;-66
2023/06/24 05:47:19;;;;;;;10.77;7.70;;;;;;;-141.84;56.44;21747.09;4925337;29;20328;-69
2023/06/24 05:49:49;;;;;;;8.95;7.53;;;;;;;-141.84;58.12;21604.75;4925865;29;20661;-66
2023/06/24 05:52:18;;;;;;;10.15;8.25;;;;;;;-141.84;58.82;21606.78;4925969;29;20708;-66
2023/06/24 05:54:47;;;;;;;9.18;7.55;;;;;;;-141.84;59.59;21562.06;4918128;29;20233;-67
2023/06/24 05:57:15;;;;;;;8.70;7.72;;;;;;;-141.84;61.16;21503.09;4926291;28;20233;-65
2023/06/24 05:59:44;;;;;;;8.30;7.45;;;;;;;-141.84;62.96;21381.09;4926882;29;20393;-65
2023/06/24 06:02:12;;;;;;;8.98;8.02;;;;;;;-141.84;62.37;21399.41;4925611;28;20319;-66
2023/06/24 06:04:41;;;;;;;9.00;7.45;;;;;;;-141.84;62.58;21431.94;4901513;28;20230;-66
2023/06/24 06:07:11;;;;;;;8.73;7.90;;;;;;;-141.84;62.94;21405.50;4907754;29;20240;-67
2023/06/24 06:09:39;;;;;;;8.70;7.80;;;;;;;-141.84;63.37;21330.28;4907996;29;20238;-67
2023/06/24 06:12:09;;;;;;;9.48;8.57;;;;;;;-141.84;63.39;21311.97;4907939;29;20690;-67
2023/06/24 06:14:37;;;;;;;11.82;8.90;;;;;;;-141.84;63.73;21338.41;4900631;28;20242;-65
2023/06/24 06:17:06;;;;;;;10.32;8.32;;;;;;;-141.84;62.86;21401.44;4907969;28;20320;-66
2023/06/24 06:19:35;;;;;;;11.25;9.40;;;;;;;-141.84;60.44;21444.13;4925051;29;20312;-65
2023/06/24 06:22:03;;;;;;;11.00;9.18;;;;;;;-141.84;60.88;21385.16;4926549;28;20279;-67
2023/06/24 06:24:33;;;;;;;9.73;8.73;;;;;;;-141.84;60.80;21383.13;4919706;28;20299;-65
2023/06/24 06:27:02;;;;;;;10.57;8.35;;;;;;;-141.84;61.08;21381.09;4926819;28;20359;-67
2023/06/24 06:29:30;;;;;;;10.50;8.95;;;;;;;-141.84;60.76;21460.41;4926168;28;20260;-66
2023/06/24 06:31:59;;;;;;;10.05;9.10;;;;;;;-141.84;60.56;21403.47;4926186;28;20237;-67
2023/06/24 06:34:27;;;;;;;11.32;8.77;;;;;;;-141.84;61.97;21322.13;4924936;28;20236;-67
2023/06/24 06:36:56;;;;;;;11.18;8.88;;;;;;;-141.84;63.09;21271.31;4923346;28;20244;-67
2023/06/24 06:39:24;;;;;;;11.05;9.95;;;;;;;-141.84;62.70;21279.44;4926535;28;20670;-66
2023/06/24 06:41:54;;;;;;;10.75;9.70;;;;;;;-141.84;63.24;21230.66;4925726;28;20361;-67
2023/06/24 06:44:22;;;;;;;10.40;9.40;;;;;;;-141.84;64.36;21265.22;4925724;28;20315;-67
2023/06/24 06:46:51;;;;;;;11.38;10.18;;;;;;;-141.84;62.77;21328.25;4918220;28;20355;-66
2023/06/24 06:49:19;;;;;;;10.27;9.05;;;;;;;-141.84;62.96;21372.97;4926818;28;20313;-66
2023/06/24 06:51:48;;;;;;;11.25;10.07;;;;;;;-141.84;61.36;21344.50;4925292;28;20233;-66
2023/06/24 06:54:16;;;;;;;10.20;9.00;;;;;;;-141.84;62.89;21336.38;4928521;28;20288;-67
2023/06/24 06:56:45;;;;;;;10.95;9.85;;;;;;;-141.84;63.65;21387.19;4911872;28;20288;-66
2023/06/24 06:59:15;;;;;;;11.52;9.57;;;;;;;-141.84;60.02;21511.22;4927704;29;20709;-66
2023/06/24 07:01:43;;;;;;;10.57;9.50;;;;;;;-141.84;60.78;21501.06;4929866;29;20271;-65
2023/06/24 07:04:12;;;;;;;9.40;8.50;;;;;;;-141.84;60.53;21501.06;4928750;28;20304;-65
2023/06/24 07:06:40;;;;;;;10.80;9.15;;;;;;;-141.84;59.67;21551.91;4903024;29;20253;-67
2023/06/24 07:09:09;;;;;;;8.88;7.97;;;;;;;-141.84;60.25;21560.03;4911293;28;20249;-65
2023/06/24 07:11:38;;;;;;;9.57;8.43;;;;;;;-141.84;58.86;21543.75;4910290;28;20997;-67
2023/06/24 07:14:06;;;;;;;11.13;8.00;;;;;;;-141.84;59.81;21527.50;4910577;28;20293;-66
2023/06/24 07:16:36;;;;;;;9.20;8.25;;;;;;;-141.84;59.09;21537.66;4903951;28;20321;-66
2023/06/24 07:19:05;;;;;;;12.38;8.77;;;;;;;-141.84;57.55;21655.59;4923909;28;20780;-66
2023/06/24 07:21:33;;;;;;;13.52;9.57;;;;;;;-141.84;58.11;21612.88;4928805;29;20239;-66
2023/06/24 07:24:02;;;;;;;12.70;8.93;;;;;;;-141.84;59.14;21645.44;4929312;29;20673;-66
2023/06/24 07:26:30;;;;;;;10.43;9.35;;;;;;;-141.84;59.35;21578.31;4924821;29;20363;-66
2023/06/24 07:29:00;;;;;;;11.00;8.63;;;;;;;-141.84;60.45;21505.13;4927285;28;20277;-65
2023/06/24 07:31:38;;;;;;;11.50;8.45;;;;;;;-141.84;62.16;21456.34;4928846;29;20243;-67
2023/06/24 07:34:07;;;;;;;10.10;8.95;;;;;;;-141.84;61.27;21458.38;4910355;29;20226;-66
2023/06/24 07:36:35;;;;;;;10.70;8.88;;;;;;;-141.84;61.38;21399.41;4903471;29;20261;-66
2023/06/24 07:39:04;;;;;;;10.13;8.82;;;;;;;-141.84;62.77;21403.47;4910851;29;20300;-66
2023/06/24 07:41:34;;;;;;;10.93;8.27;;;;;;;-141.84;61.29;21499.03;4910009;29;20320;-66
2023/06/24 07:44:02;;;;;;;9.35;8.40;;;;;;;-141.84;60.08;21564.09;4910402;29;20285;-67
2023/06/24 07:46:31;;;;;;;8.80;7.90;;;;;;;-141.84;58.21;21610.84;4902976;29;20314;-64
2023/06/24 07:49:01;;;;;;;9.57;7.60;;;;;;;-141.84;58.32;21547.81;4909700;29;20246;-65
2023/06/24 07:51:29;;;;;;;9.35;8.40;;;;;;;-141.84;59.85;21517.31;4908692;29;20318;-65
2023/06/24 07:53:58;;;;;;;9.43;8.43;;;;;;;-141.84;59.27;21537.66;4919606;29;20213;-65
2023/06/24 07:56:26;;;;;;;8.85;7.40;;;;;;;-141.84;59.03;21429.91;4927095;28;20235;-64
2023/06/24 07:58:55;;;;;;;7.43;6.53;;;;;;;-141.84;58.04;21558.00;4925582;28;20316;-65
2023/06/24 08:01:24;;;;;;;10.05;7.70;;;;;;;-141.84;57.84;21698.28;4927062;28;20740;-64
2023/06/24 08:03:52;;;;;;;9.43;8.40;;;;;;;-141.84;58.83;21612.88;4926608;28;20281;-65
2023/06/24 08:06:23;;;;;;;11.50;8.93;;;;;;;-141.84;60.21;21541.72;4912057;28;20213;-66
2023/06/24 08:08:51;;;;;;;8.48;7.45;;;;;;;-141.84;61.77;21440.06;4920089;28;20244;-65
2023/06/24 08:11:21;;;;;;;8.23;7.50;;;;;;;-141.84;61.53;21427.88;4927261;28;20245;-65
2023/06/24 08:13:50;;;;;;;9.48;8.35;;;;;;;-141.84;60.94;21462.44;4924725;28;20233;-64
2023/06/24 08:16:21;;;;;;;8.65;7.75;;;;;;;-141.84;61.59;21470.56;4924930;28;20316;-65
2023/06/24 08:18:52;;;;;;;8.05;7.25;;;;;;;-141.84;60.23;21486.81;4919619;29;22776;-66
2023/06/24 08:21:22;;;;;;;7.97;7.00;;;;;;;-141.84;59.55;21535.63;4927406;28;20601;-65
2023/06/24 08:23:51;;;;;;;7.63;6.82;;;;;;;-141.84;57.70;21541.72;4927417;29;20236;-64
2023/06/24 08:26:21;;;;;;;8.10;7.32;;;;;;;-141.84;58.32;21594.59;4927301;29;20265;-65
2023/06/24 08:28:59;;;;;;;9.35;6.70;;;;;;;-141.84;57.64;21684.06;4918380;29;20720;-64
2023/06/24 08:31:30;;;;;;;6.90;6.22;;;;;;;-141.84;55.83;21769.47;4926559;29;20252;-65
2023/06/24 08:34:02;;;;;;;7.32;6.63;;;;;;;-141.84;54.42;21753.19;4925604;28;20752;-64
2023/06/24 08:36:32;;;;;;;8.15;6.38;;;;;;;-141.84;55.48;21682.03;4922216;28;20296;-65
2023/06/24 08:39:00;;;;;;;6.78;6.10;;;;;;;-141.84;54.46;21637.28;4926025;28;20296;-65
2023/06/24 08:41:29;;;;;;;8.45;6.55;;;;;;;-141.84;55.80;21592.56;4926465;28;20355;-65
2023/06/24 08:43:57;;;;;;;7.32;6.60;;;;;;;-141.84;56.34;21582.38;4926917;28;20324;-64
2023/06/24 08:46:27;;;;;;;6.57;5.90;;;;;;;-141.84;55.43;21653.56;4927201;28;20256;-67
2023/06/24 08:49:03;;;;;;;7.60;6.32;;;;;;;-141.84;55.60;21712.53;4922723;28;20237;-65
2023/06/24 08:51:39;;;;;;;7.47;6.50;;;;;;;-141.84;54.32;21810.13;4926547;28;20260;-65
2023/06/24 08:54:10;;;;;;;6.47;5.82;;;;;;;-141.84;55.58;21781.66;4926596;29;20240;-66
2023/06/24 08:56:39;;;;;;;7.68;6.45;;;;;;;-141.84;53.19;21797.94;4918703;29;20277;-64
2023/06/24 08:59:09;;;;;;;6.30;5.80;;;;;;;-141.84;52.52;21863.00;4926334;29;20278;-65
2023/06/24 09:01:38;;;;;;;6.38;5.78;;;;;;;-141.84;53.85;21759.28;4914685;29;20346;-65
2023/06/24 09:04:07;;;;;;;7.43;6.63;;;;;;;-141.84;53.91;21775.56;4906842;29;20236;-65
2023/06/24 09:06:37;;;;;;;6.45;5.80;;;;;;;-141.84;53.56;21743.03;4908499;28;20256;-64
2023/06/24 09:09:05;;;;;;;6.57;5.72;;;;;;;-141.84;54.07;21728.78;4917782;29;20242;-62
2023/06/24 09:11:34;;;;;;;6.88;5.63;;;;;;;-141.84;53.89;21769.47;4907657;29;20331;-64
2023/06/24 09:14:03;;;;;;;6.53;5.93;;;;;;;-141.84;54.01;21773.53;4913624;29;20732;-64
2023/06/24 09:16:31;;;;;;;7.07;5.57;;;;;;;-141.84;54.36;21730.81;4892815;29;20414;-66
2023/06/24 09:19:00;;;;;;;6.93;6.22;;;;;;;-141.84;54.45;21663.72;4898267;29;20225;-65
2023/06/24 09:21:30;;;;;;;6.88;6.10;;;;;;;-141.84;53.22;21667.78;4900264;29;20249;-67
2023/06/24 09:24:00;;;;;;;6.10;5.50;;;;;;;-141.84;53.79;21675.94;4917774;29;20221;-68
2023/06/24 09:26:30;;;;;;;5.95;5.45;;;;;;;-141.84;54.48;21690.16;4920030;28;20263;-66
2023/06/24 09:28:59;;;;;;;7.30;5.78;;;;;;;-141.84;53.60;21706.44;4922812;29;20229;-65
2023/06/24 09:31:28;;;;;;;6.70;6.10;;;;;;;-141.84;53.90;21706.44;4907599;29;20777;-66
2023/06/24 09:33:59;;;;;;;6.20;5.70;;;;;;;-141.84;52.56;21863.00;4909185;29;21147;-66
2023/06/24 09:36:27;;;;;;;6.70;5.88;;;;;;;-141.84;52.57;21887.41;4907507;29;20297;-65
2023/06/24 09:39:03;;;;;;;6.43;5.93;;;;;;;-141.84;52.14;21917.91;4902275;29;20682;-66
2023/06/24 09:41:36;;;;;;;8.23;5.65;;;;;;;-141.84;52.05;21810.13;4902150;29;20238;-66
2023/06/24 09:44:11;;;;;;;7.85;7.13;;;;;;;-141.84;53.28;21818.25;4903871;29;20229;-66
2023/06/24 09:46:41;;;;;;;5.85;5.35;;;;;;;-141.84;52.67;21736.94;4915597;28;20585;-65
2023/06/24 09:49:09;;;;;;;5.47;4.97;;;;;;;-141.84;51.31;21718.63;4908461;29;20918;-65
2023/06/24 09:51:40;;;;;;;5.10;4.70;;;;;;;-141.84;51.83;21675.94;4907538;29;20741;-65
2023/06/24 09:54:09;;;;;;;5.05;4.55;;;;;;;-141.84;52.99;21757.25;4914388;29;20579;-65
2023/06/24 09:56:41;;;;;;;6.13;5.55;;;;;;;-141.84;51.94;21783.69;4909155;28;20257;-66
2023/06/24 09:59:10;;;;;;;5.65;5.15;;;;;;;-141.84;51.43;21779.63;4918979;29;20233;-66
2023/06/24 10:01:41;;;;;;;5.82;5.20;;;;;;;-141.84;52.51;21785.72;4922674;28;20690;-66
2023/06/24 10:04:16;;;;;;;6.32;5.60;;;;;;;-141.84;52.84;21810.13;4905920;29;20233;-66
2023/06/24 10:06:44;;;;;;;5.70;5.20;;;;;;;-141.84;52.68;21810.13;4903450;28;20307;-65
2023/06/24 10:09:16;;;;;;;5.95;5.45;;;;;;;-141.84;52.47;21858.94;4906443;29;20706;-66
2023/06/24 10:11:49;;;;;;;7.63;5.85;;;;;;;-141.84;52.97;21865.03;4895554;29;20285;-66
2023/06/24 10:14:18;;;;;;;5.47;5.03;;;;;;;-141.84;52.71;21860.97;4921186;29;20232;-66
2023/06/24 10:16:46;;;;;;;6.00;5.32;;;;;;;-141.84;51.68;21865.03;4899085;29;20233;-66
2023/06/24 10:19:21;;;;;;;6.35;5.10;;;;;;;-141.84;52.95;21814.19;4922339;29;20264;-67
2023/06/24 10:21:53;;;;;;;5.43;4.70;;;;;;;-141.84;52.25;21818.25;4919218;28;20229;-67
2023/06/24 10:24:31;;;;;;;5.38;4.88;;;;;;;-141.84;51.84;21822.31;4915001;29;20222;-67
2023/06/24 10:27:10;;;;;;;5.75;5.25;;;;;;;-141.84;51.51;21846.72;4911929;28;20221;-65
2023/06/24 10:29:39;;;;;;;5.82;5.03;;;;;;;-141.84;51.98;21832.50;4920806;28;20260;-66
2023/06/24 10:32:08;;;;;;;5.30;4.80;;;;;;;-141.84;51.52;21889.44;4920024;29;20324;-67
2023/06/24 10:34:43;;;;;;;5.22;4.72;;;;;;;-141.84;50.42;21895.53;4902220;28;20305;-66
2023/06/24 10:37:14;;;;;;;4.90;4.50;;;;;;;-141.84;49.86;21860.97;4910815;29;20272;-67
2023/06/24 10:39:51;;;;;;;5.55;4.80;;;;;;;-141.84;50.24;21875.19;4925544;28;20225;-66
2023/06/24 10:42:39;;;;;;;7.13;4.28;;;;;;;-141.84;49.74;21879.25;4908965;29;20682;-67
2023/06/24 10:45:21;;;;;;;6.30;4.57;;;;;;;-141.84;49.48;21848.75;4910887;29;20662;-67
2023/06/24 10:47:52;;;;;;;4.85;4.35;;;;;;;-141.84;49.64;21873.16;4892213;29;20234;-64
2023/06/24 10:50:23;;;;;;;13.20;4.50;;;;;;;-141.84;50.15;21887.41;4916841;28;20702;-65
2023/06/24 10:52:55;;;;;;;6.15;4.65;;;;;;;-141.84;49.48;21865.03;4913687;29;20299;-64
2023/06/24 10:55:26;;;;;;;5.68;4.28;;;;;;;-141.84;47.31;21934.16;4915388;29;20225;-63
2023/06/24 10:58:07;;;;;;;4.55;4.15;;;;;;;-141.84;47.45;21924.00;4915745;28;20225;-64
2023/06/24 11:00:39;;;;;;;7.57;6.97;;;;;;;-141.84;48.70;21962.63;4908835;29;20229;-63
2023/06/24 11:03:12;;;;;;;5.85;4.13;;;;;;;-141.84;48.76;21944.34;4916892;28;20225;-65
2023/06/24 11:05:41;;;;;;;6.63;4.55;;;;;;;-141.84;49.15;21944.34;4897268;29;20243;-65
2023/06/24 11:08:11;;;;;;;5.13;4.38;;;;;;;-141.84;49.01;21968.72;4913561;29;20324;-65
2023/06/24 11:10:46;;;;;;;5.03;4.53;;;;;;;-141.84;48.48;21936.19;4902133;29;20906;-65
2023/06/24 11:13:21;;;;;;;5.03;4.10;;;;;;;-141.84;47.93;22007.38;4910924;29;20253;-65
2023/06/24 11:15:50;;;;;;;7.43;4.53;;;;;;;-141.84;48.29;21952.47;4917300;29;20241;-65
2023/06/24 11:18:18;;;;;;;4.97;4.43;;;;;;;-141.84;48.83;21976.88;4923633;28;20290;-66
2023/06/24 11:20:49;;;;;;;5.22;4.72;;;;;;;-141.84;47.80;21980.94;4905759;29;20710;-67
2023/06/24 11:23:17;;;;;;;4.88;4.38;;;;;;;-141.84;48.08;22033.81;4912881;29;20238;-67